createdAt,value
2019-03-11T00:02:05.400Z,8.48
2019-03-11T00:04:36.741Z,8.65
2019-03-11T00:07:08.161Z,8.52
2019-03-11T00:09:39.669Z,8.58
2019-03-11T00:12:11.003Z,8.56
2019-03-11T00:14:43.607Z,8.48
2019-03-11T00:17:15.952Z,8.71
2019-03-11T00:19:47.222Z,8.78
2019-03-11T00:22:18.654Z,8.47
2019-03-11T00:24:50.973Z,8.82
2019-03-11T00:27:22.567Z,8.70
2019-03-11T00:29:53.914Z,8.86
2019-03-11T00:32:25.027Z,8.74
2019-03-11T00:34:56.351Z,8.40
2019-03-11T00:37:27.430Z,8.44
2019-03-11T00:39:58.438Z,8.34
2019-03-11T00:42:29.500Z,8.33
2019-03-11T00:45:00.555Z,8.51
2019-03-11T00:47:31.873Z,8.67
2019-03-11T00:50:05.252Z,8.50
2019-03-11T00:52:37.602Z,8.41
2019-03-11T00:55:09.147Z,8.51
2019-03-11T00:57:40.227Z,8.58
2019-03-11T01:00:21.278Z,8.71
2019-03-11T01:02:52.805Z,8.69
2019-03-11T01:05:24.018Z,8.56
2019-03-11T01:07:55.420Z,8.56
2019-03-11T01:10:26.500Z,8.72
2019-03-11T01:12:58.246Z,8.33
2019-03-11T01:15:29.575Z,8.31
2019-03-11T01:18:01.042Z,8.35
2019-03-11T01:20:32.017Z,8.43
2019-03-11T01:23:04.608Z,8.27
2019-03-11T01:25:35.595Z,8.33
2019-03-11T01:28:07.050Z,8.42
2019-03-11T01:30:38.125Z,8.23
2019-03-11T01:33:09.139Z,8.28
2019-03-11T01:35:40.217Z,8.19
2019-03-11T01:38:11.502Z,8.32
2019-03-11T01:40:42.949Z,8.19
2019-03-11T01:43:14.035Z,7.91
2019-03-11T01:45:45.039Z,8.16
2019-03-11T01:48:16.292Z,8.34
2019-03-11T01:50:47.528Z,8.23
2019-03-11T01:53:18.796Z,8.47
2019-03-11T01:55:49.776Z,8.61
2019-03-11T01:58:20.768Z,8.72
2019-03-11T02:00:52.989Z,8.30
2019-03-11T02:03:24.578Z,8.46
2019-03-11T02:05:55.562Z,8.53
2019-03-11T02:08:26.679Z,8.60
2019-03-11T02:10:57.719Z,8.62
2019-03-11T02:13:28.700Z,8.65
2019-03-11T02:15:59.716Z,8.61
2019-03-11T02:18:30.758Z,8.68
2019-03-11T02:21:01.740Z,8.91
2019-03-11T02:23:33.317Z,9.03
2019-03-11T02:26:05.335Z,8.97
2019-03-11T02:28:36.418Z,8.73
2019-03-11T02:31:07.487Z,8.60
2019-03-11T02:33:38.850Z,8.50
2019-03-11T02:36:09.955Z,8.67
2019-03-11T02:38:42.138Z,8.57
2019-03-11T02:41:13.469Z,8.87
2019-03-11T02:44:41.915Z,8.80
2019-03-11T02:47:13.226Z,8.86
2019-03-11T02:49:44.395Z,8.55
2019-03-11T02:52:15.384Z,8.57
2019-03-11T02:54:46.482Z,8.62
2019-03-11T02:57:17.458Z,8.65
2019-03-11T02:59:48.463Z,8.50
2019-03-11T03:02:57.012Z,8.38
2019-03-11T03:05:41.459Z,8.38
2019-03-11T03:08:12.860Z,8.49
2019-03-11T03:10:44.012Z,8.56
2019-03-11T03:13:15.184Z,8.46
2019-03-11T03:15:46.540Z,8.50
2019-03-11T03:18:19.574Z,8.71
2019-03-11T03:20:50.576Z,8.57
2019-03-11T03:23:21.813Z,8.47
2019-03-11T03:25:52.848Z,8.50
2019-03-11T03:28:23.808Z,8.33
2019-03-11T03:30:55.243Z,8.29
2019-03-11T03:33:26.214Z,8.24
2019-03-11T03:35:57.589Z,8.12
2019-03-11T03:38:31.367Z,8.02
2019-03-11T03:41:03.151Z,8.16
2019-03-11T03:43:34.469Z,8.29
2019-03-11T03:46:18.083Z,8.03
2019-03-11T03:48:39.278Z,7.99
2019-03-11T03:51:10.430Z,8.09
2019-03-11T03:53:41.481Z,8.15
2019-03-11T03:56:12.767Z,7.96
2019-03-11T03:58:44.347Z,7.72
2019-03-11T04:01:15.426Z,7.79
2019-03-11T04:03:46.438Z,7.85
2019-03-11T04:06:17.592Z,8.00
2019-03-11T04:08:48.575Z,8.10
2019-03-11T04:11:19.562Z,8.07
2019-03-11T04:13:50.958Z,8.06
2019-03-11T04:16:22.027Z,7.97
2019-03-11T04:18:55.769Z,8.26
2019-03-11T04:21:26.978Z,8.18
2019-03-11T04:23:58.742Z,8.24
2019-03-11T04:26:31.279Z,8.08
2019-03-11T04:29:02.345Z,8.08
2019-03-11T04:31:34.585Z,8.10
2019-03-11T04:34:05.942Z,7.98
2019-03-11T04:36:37.207Z,7.88
2019-03-11T04:39:08.577Z,7.62
2019-03-11T04:41:39.825Z,7.63
2019-03-11T04:44:10.791Z,7.49
2019-03-11T04:46:42.745Z,7.53
2019-03-11T04:49:13.845Z,7.64
2019-03-11T04:51:44.907Z,7.79
2019-03-11T04:54:16.569Z,7.82
2019-03-11T04:56:47.831Z,7.87
2019-03-11T04:59:18.851Z,8.02
2019-03-11T05:01:49.803Z,7.62
2019-03-11T05:04:21.020Z,7.66
2019-03-11T05:06:52.520Z,7.55
2019-03-11T05:09:23.777Z,7.52
2019-03-11T05:11:54.795Z,7.63
2019-03-11T05:14:25.801Z,7.43
2019-03-11T05:16:57.302Z,7.16
2019-03-11T05:19:28.855Z,7.16
2019-03-11T05:22:00.127Z,7.45
2019-03-11T05:24:31.368Z,7.44
2019-03-11T05:27:03.010Z,7.50
2019-03-11T05:29:35.178Z,7.44
2019-03-11T05:32:06.448Z,7.46
2019-03-11T05:34:37.760Z,7.51
2019-03-11T05:37:08.753Z,7.24
2019-03-11T05:39:40.001Z,7.27
2019-03-11T05:42:11.264Z,7.55
2019-03-11T05:44:42.256Z,7.59
2019-03-11T05:47:13.581Z,7.38
2019-03-11T05:49:44.862Z,7.39
2019-03-11T05:52:16.349Z,7.36
2019-03-11T05:54:47.336Z,7.43
2019-03-11T05:57:18.351Z,7.28
2019-03-11T05:59:49.434Z,7.34
2019-03-11T06:02:20.583Z,7.59
2019-03-11T06:04:52.157Z,7.50
2019-03-11T06:07:23.990Z,7.61
2019-03-11T06:09:56.110Z,7.53
2019-03-11T06:12:27.414Z,7.36
2019-03-11T06:14:58.414Z,7.39
2019-03-11T06:17:30.495Z,6.93
2019-03-11T06:20:39.879Z,7.39
2019-03-11T06:23:12.119Z,7.34
2019-03-11T06:25:43.469Z,7.39
2019-03-11T06:28:14.969Z,7.50
2019-03-11T06:30:45.975Z,7.67
2019-03-11T06:33:17.268Z,7.64
2019-03-11T06:35:48.276Z,7.51
2019-03-11T06:38:19.520Z,7.36
2019-03-11T06:40:50.535Z,7.46
2019-03-11T06:43:21.525Z,7.26
2019-03-11T06:45:53.206Z,7.49
2019-03-11T06:48:24.293Z,7.63
2019-03-11T06:50:55.524Z,7.73
2019-03-11T06:53:26.577Z,7.41
2019-03-11T06:55:57.613Z,7.33
2019-03-11T06:58:28.589Z,7.48
2019-03-11T07:00:59.827Z,7.29
2019-03-11T07:03:31.137Z,7.24
2019-03-11T07:06:06.765Z,7.43
2019-03-11T07:08:37.750Z,7.44
2019-03-11T07:11:09.283Z,7.28
2019-03-11T07:13:40.693Z,7.28
2019-03-11T07:16:11.683Z,7.01
2019-03-11T07:18:43.975Z,7.05
2019-03-11T07:21:15.572Z,7.11
2019-03-11T07:23:46.645Z,7.07
2019-03-11T07:26:17.728Z,7.14
2019-03-11T07:28:49.017Z,7.12
2019-03-11T07:31:20.260Z,7.22
2019-03-11T07:33:51.322Z,7.47
2019-03-11T07:36:22.556Z,7.37
2019-03-11T07:38:54.225Z,7.21
2019-03-11T07:41:25.951Z,7.19
2019-03-11T07:43:57.120Z,7.22
2019-03-11T07:46:28.526Z,7.27
2019-03-11T07:48:59.503Z,7.27
2019-03-11T07:51:30.557Z,6.95
2019-03-11T07:54:01.545Z,7.19
2019-03-11T07:56:32.771Z,7.17
2019-03-11T07:59:05.072Z,6.94
2019-03-11T08:01:36.135Z,6.96
2019-03-11T08:04:07.443Z,6.82
2019-03-11T08:06:38.432Z,6.95
2019-03-11T08:09:10.802Z,6.71
2019-03-11T08:11:41.790Z,6.16
2019-03-11T08:14:13.073Z,6.02
2019-03-11T08:16:44.048Z,6.02
2019-03-11T08:19:15.083Z,6.15
2019-03-11T08:21:46.406Z,6.12
2019-03-11T08:24:17.957Z,5.98
2019-03-11T08:26:49.228Z,5.90
2019-03-11T08:29:20.536Z,6.12
2019-03-11T08:31:51.876Z,6.28
2019-03-11T08:34:23.367Z,6.48
2019-03-11T08:36:54.348Z,6.87
2019-03-11T08:39:26.496Z,7.08
2019-03-11T08:41:57.525Z,7.28
2019-03-11T08:44:28.570Z,7.44
2019-03-11T08:47:00.067Z,7.50
2019-03-11T08:49:31.316Z,7.41
2019-03-11T08:52:02.379Z,7.46
2019-03-11T08:54:33.619Z,7.26
2019-03-11T08:57:05.581Z,7.30
2019-03-11T08:59:36.552Z,7.43
2019-03-11T09:02:07.965Z,7.62
2019-03-11T09:04:39.016Z,7.92
2019-03-11T09:07:10.010Z,7.72
2019-03-11T09:09:41.755Z,7.67
2019-03-11T09:12:12.965Z,7.40
2019-03-11T09:14:44.498Z,7.69
2019-03-11T09:17:15.569Z,7.68
2019-03-11T09:19:46.575Z,7.83
2019-03-11T09:22:17.806Z,7.45
2019-03-11T09:24:48.793Z,7.66
2019-03-11T09:27:20.129Z,7.64
2019-03-11T09:29:51.172Z,7.57
2019-03-11T09:32:22.424Z,7.64
2019-03-11T09:34:54.056Z,7.57
2019-03-11T09:37:25.362Z,7.82
2019-03-11T09:39:56.575Z,7.97
2019-03-11T09:42:27.564Z,8.03
2019-03-11T09:44:59.138Z,8.28
2019-03-11T09:47:30.397Z,8.35
2019-03-11T09:50:01.748Z,8.30
2019-03-11T09:52:32.737Z,8.43
2019-03-11T09:55:03.783Z,8.28
2019-03-11T09:57:35.445Z,8.46
2019-03-11T10:00:14.169Z,8.54
2019-03-11T10:02:52.430Z,8.63
2019-03-11T10:05:18.411Z,8.77
2019-03-11T10:07:49.377Z,8.60
2019-03-11T10:10:20.904Z,8.75
2019-03-11T10:12:52.028Z,8.78
2019-03-11T10:15:23.155Z,8.87
2019-03-11T10:17:54.625Z,9.01
2019-03-11T10:20:25.965Z,8.98
2019-03-11T10:22:56.969Z,9.09
2019-03-11T10:25:28.173Z,8.81
2019-03-11T10:27:59.330Z,8.82
2019-03-11T10:30:30.524Z,8.81
2019-03-11T10:33:01.622Z,9.01
2019-03-11T10:35:33.301Z,8.99
2019-03-11T10:38:05.705Z,8.57
2019-03-11T10:40:36.932Z,8.53
2019-03-11T10:43:08.113Z,8.81
2019-03-11T10:45:39.133Z,8.78
2019-03-11T10:48:10.538Z,8.75
2019-03-11T10:50:41.903Z,8.70
2019-03-11T10:53:12.888Z,8.50
2019-03-11T10:55:44.008Z,8.39
2019-03-11T10:58:15.325Z,8.17
2019-03-11T11:00:46.672Z,8.39
2019-03-11T11:03:18.352Z,8.58
2019-03-11T11:05:49.312Z,8.86
2019-03-11T11:08:20.697Z,8.95
2019-03-11T11:10:51.678Z,8.97
2019-03-11T11:13:22.698Z,8.73
2019-03-11T11:15:53.729Z,8.79
2019-03-11T11:18:24.786Z,8.97
2019-03-11T11:20:55.829Z,9.05
2019-03-11T11:23:27.345Z,8.98
2019-03-11T11:25:58.749Z,9.11
2019-03-11T11:28:29.797Z,8.95
2019-03-11T11:31:00.821Z,8.75
2019-03-11T11:33:32.082Z,9.08
2019-03-11T11:36:03.968Z,8.90
2019-03-11T11:38:35.764Z,8.85
2019-03-11T11:41:06.991Z,9.04
2019-03-11T11:43:38.000Z,8.96
2019-03-11T11:46:09.062Z,8.98
2019-03-11T11:48:40.764Z,8.99
2019-03-11T11:51:11.787Z,9.18
2019-03-11T11:53:42.862Z,9.09
2019-03-11T11:56:14.404Z,9.13
2019-03-11T11:58:46.470Z,8.96
2019-03-11T12:01:17.571Z,8.73
2019-03-11T12:03:48.610Z,8.76
2019-03-11T12:06:19.831Z,8.82
2019-03-11T12:08:50.811Z,8.79
2019-03-11T12:11:23.067Z,9.09
2019-03-11T12:13:56.163Z,9.04
2019-03-11T12:16:27.143Z,9.19
2019-03-11T12:18:58.116Z,9.38
2019-03-11T12:21:35.010Z,9.75
2019-03-11T12:24:35.899Z,10.08
2019-03-11T12:27:07.056Z,10.09
2019-03-11T12:29:38.384Z,10.10
2019-03-11T12:32:10.121Z,10.04
2019-03-11T12:34:41.245Z,10.15
2019-03-11T12:37:12.850Z,10.19
2019-03-11T12:39:44.094Z,10.08
2019-03-11T12:42:15.222Z,10.24
2019-03-11T12:44:46.783Z,10.11
2019-03-11T12:47:17.871Z,9.83
2019-03-11T12:49:49.167Z,10.02
2019-03-11T12:52:20.904Z,9.95
2019-03-11T12:54:52.482Z,9.91
2019-03-11T12:57:24.133Z,9.96
2019-03-11T13:00:16.685Z,10.24
2019-03-11T13:02:47.836Z,10.46
2019-03-11T13:05:20.357Z,10.33
2019-03-11T13:07:51.422Z,10.59
2019-03-11T13:10:22.667Z,10.52
2019-03-11T13:12:54.058Z,10.60
2019-03-11T13:15:25.467Z,10.39
2019-03-11T13:17:56.548Z,10.27
2019-03-11T13:20:31.707Z,10.28
2019-03-11T13:23:02.705Z,10.54
2019-03-11T13:25:34.467Z,10.29
2019-03-11T13:28:06.517Z,10.22
2019-03-11T13:30:37.631Z,10.31
2019-03-11T13:33:08.663Z,10.13
2019-03-11T13:35:39.711Z,10.31
2019-03-11T13:38:10.813Z,10.25
2019-03-11T13:40:41.959Z,10.43
2019-03-11T13:43:13.059Z,10.53
2019-03-11T13:45:44.724Z,10.27
2019-03-11T13:48:16.054Z,10.43
2019-03-11T13:50:47.007Z,10.36
2019-03-11T13:53:17.998Z,10.45
2019-03-11T13:55:49.119Z,10.31
2019-03-11T13:58:20.496Z,10.30
2019-03-11T14:00:56.753Z,10.05
2019-03-11T14:03:24.818Z,10.04
2019-03-11T14:05:56.480Z,9.79
2019-03-11T14:08:28.102Z,9.77
2019-03-11T14:10:59.431Z,10.12
2019-03-11T14:13:30.661Z,10.24
2019-03-11T14:16:02.077Z,10.56
2019-03-11T14:18:33.301Z,10.31
2019-03-11T14:21:04.790Z,10.24
2019-03-11T14:23:36.436Z,10.04
2019-03-11T14:26:08.029Z,10.36
2019-03-11T14:28:39.033Z,10.18
2019-03-11T14:31:10.658Z,10.27
2019-03-11T14:33:41.728Z,10.05
2019-03-11T14:36:13.330Z,10.23
2019-03-11T14:38:44.634Z,10.28
2019-03-11T14:41:15.581Z,10.00
2019-03-11T14:43:46.909Z,10.25
2019-03-11T14:46:18.204Z,10.49
2019-03-11T14:48:49.368Z,10.07
2019-03-11T14:51:20.356Z,10.04
2019-03-11T14:53:51.613Z,9.94
2019-03-11T14:56:23.795Z,10.05
2019-03-11T14:58:54.776Z,10.23
2019-03-11T15:01:25.895Z,10.17
2019-03-11T15:03:57.173Z,10.12
2019-03-11T15:06:28.326Z,10.16
2019-03-11T15:08:59.976Z,10.29
2019-03-11T15:11:31.694Z,10.25
2019-03-11T15:14:02.995Z,10.38
2019-03-11T15:16:34.003Z,10.25
2019-03-11T15:19:06.305Z,10.34
2019-03-11T15:21:37.419Z,10.18
2019-03-11T15:24:09.122Z,10.04
2019-03-11T15:26:40.590Z,9.95
2019-03-11T15:29:12.724Z,10.05
2019-03-11T15:31:43.944Z,9.95
2019-03-11T15:34:15.281Z,9.91
2019-03-11T15:36:46.712Z,10.04
2019-03-11T15:39:17.779Z,10.01
2019-03-11T15:41:49.233Z,9.96
2019-03-11T15:44:20.591Z,9.89
2019-03-11T15:46:52.172Z,9.66
2019-03-11T15:49:23.183Z,9.80
2019-03-11T15:51:55.008Z,9.95
2019-03-11T15:54:25.997Z,9.88
2019-03-11T15:56:57.390Z,9.89
2019-03-11T15:59:28.670Z,9.53
2019-03-11T16:01:59.699Z,9.35
2019-03-11T16:04:30.916Z,9.31
2019-03-11T16:07:01.977Z,9.14
2019-03-11T16:09:33.245Z,8.62
2019-03-11T16:12:04.618Z,8.85
2019-03-11T16:14:36.431Z,8.95
2019-03-11T16:17:07.611Z,9.10
2019-03-11T16:19:38.602Z,9.09
2019-03-11T16:22:09.976Z,9.11
2019-03-11T16:24:41.556Z,9.08
2019-03-11T16:27:12.864Z,8.88
2019-03-11T16:29:44.124Z,8.81
2019-03-11T16:32:37.315Z,8.85
2019-03-11T16:35:07.515Z,8.76
2019-03-11T16:37:38.710Z,8.90
2019-03-11T16:40:10.893Z,8.78
2019-03-11T16:42:43.204Z,8.26
2019-03-11T16:45:14.860Z,8.54
2019-03-11T16:47:45.953Z,8.62
2019-03-11T16:50:17.599Z,8.79
2019-03-11T16:52:49.416Z,8.49
2019-03-11T16:55:23.330Z,8.49
2019-03-11T16:57:54.927Z,8.64
2019-03-11T17:00:30.458Z,8.64
2019-03-11T17:03:02.002Z,8.61
2019-03-11T17:05:33.752Z,8.55
2019-03-11T17:08:04.869Z,8.55
2019-03-11T17:10:36.945Z,8.63
2019-03-11T17:13:08.193Z,8.63
2019-03-11T17:15:39.239Z,8.52
2019-03-11T17:18:10.578Z,8.28
2019-03-11T17:20:41.932Z,8.51
2019-03-11T17:23:13.008Z,8.57
2019-03-11T17:25:44.360Z,8.53
2019-03-11T17:28:17.730Z,8.13
2019-03-11T17:30:48.886Z,8.31
2019-03-11T17:33:19.967Z,8.30
2019-03-11T17:35:51.305Z,8.32
2019-03-11T17:38:22.910Z,8.39
2019-03-11T17:40:53.963Z,8.43
2019-03-11T17:43:25.300Z,8.37
2019-03-11T17:45:56.950Z,8.37
2019-03-11T17:48:28.498Z,8.51
2019-03-11T17:51:00.046Z,8.27
2019-03-11T17:53:32.089Z,8.29
2019-03-11T17:56:03.495Z,8.27
2019-03-11T17:58:34.919Z,8.32
2019-03-11T18:01:07.653Z,8.38
2019-03-11T18:03:39.065Z,8.30
2019-03-11T18:06:11.958Z,8.19
2019-03-11T18:08:44.730Z,8.16
2019-03-11T18:11:16.199Z,8.22
2019-03-11T18:13:47.692Z,8.15
2019-03-11T18:16:19.367Z,8.45
2019-03-11T18:18:51.424Z,8.46
2019-03-11T18:21:23.079Z,8.54
2019-03-11T18:23:54.470Z,8.29
2019-03-11T18:26:26.104Z,8.34
2019-03-11T18:28:57.382Z,8.22
2019-03-11T18:31:29.406Z,8.29
2019-03-11T18:34:00.509Z,8.45
2019-03-11T18:36:31.835Z,8.38
2019-03-11T18:39:03.002Z,8.28
2019-03-11T18:41:37.132Z,8.31
2019-03-11T18:44:08.160Z,8.23
2019-03-11T18:46:39.486Z,8.39
2019-03-11T18:49:10.918Z,8.43
2019-03-11T18:51:43.263Z,8.41
2019-03-11T18:54:14.304Z,8.40
2019-03-11T18:56:45.817Z,8.33
2019-03-11T18:59:16.822Z,8.41
2019-03-11T19:01:48.491Z,8.53
2019-03-11T19:04:19.618Z,8.50
2019-03-11T19:06:51.014Z,8.50
2019-03-11T19:09:22.288Z,8.50
2019-03-11T19:11:53.297Z,8.49
2019-03-11T19:14:24.275Z,8.49
2019-03-11T19:16:55.608Z,8.47
2019-03-11T19:19:26.887Z,8.38
2019-03-11T19:21:58.237Z,8.48
2019-03-11T19:24:29.581Z,8.10
2019-03-11T19:27:00.773Z,8.23
2019-03-11T19:29:32.156Z,8.18
2019-03-11T19:32:04.887Z,8.09
2019-03-11T19:34:37.545Z,8.31
2019-03-11T19:37:08.699Z,8.45
2019-03-11T19:39:39.638Z,8.41
2019-03-11T19:42:10.809Z,8.45
2019-03-11T19:44:42.117Z,8.48
2019-03-11T19:47:13.648Z,8.36
2019-03-11T19:49:44.591Z,8.35
2019-03-11T19:52:16.744Z,8.45
2019-03-11T19:54:48.015Z,8.45
2019-03-11T19:57:19.390Z,8.59
2019-03-11T19:59:50.420Z,8.62
2019-03-11T20:02:24.280Z,8.47
2019-03-11T20:04:54.431Z,8.33
2019-03-11T20:07:26.041Z,8.22
2019-03-11T20:09:57.438Z,8.18
2019-03-11T20:12:28.612Z,8.28
2019-03-11T20:14:59.605Z,8.18
2019-03-11T20:17:31.145Z,8.06
2019-03-11T20:20:02.240Z,8.27
2019-03-11T20:22:33.434Z,8.16
2019-03-11T20:25:05.602Z,8.18
2019-03-11T20:27:37.170Z,8.09
2019-03-11T20:30:14.914Z,7.96
2019-03-11T20:32:46.488Z,8.07
2019-03-11T20:35:18.367Z,8.20
2019-03-11T20:37:51.340Z,8.17
2019-03-11T20:40:22.455Z,8.16
2019-03-11T20:42:53.612Z,8.01
2019-03-11T20:45:24.810Z,8.00
2019-03-11T20:47:56.483Z,8.09
2019-03-11T20:50:28.113Z,8.11
2019-03-11T20:53:00.441Z,8.19
2019-03-11T20:55:34.031Z,8.23
2019-03-11T20:58:04.222Z,8.07
2019-03-11T21:00:35.816Z,8.28
2019-03-11T21:03:08.262Z,8.17
2019-03-11T21:05:39.660Z,7.98
2019-03-11T21:08:10.932Z,7.94
2019-03-11T21:10:42.797Z,8.12
2019-03-11T21:13:15.183Z,7.93
2019-03-11T21:15:46.338Z,8.02
2019-03-11T21:18:17.469Z,7.98
2019-03-11T21:20:49.100Z,8.03
2019-03-11T21:23:20.346Z,8.02
2019-03-11T21:25:51.322Z,7.93
2019-03-11T21:28:24.002Z,7.67
2019-03-11T21:30:55.401Z,7.91
2019-03-11T21:33:27.176Z,7.87
2019-03-11T21:35:58.379Z,7.85
2019-03-11T21:38:29.415Z,7.81
2019-03-11T21:41:00.539Z,7.93
2019-03-11T21:43:32.065Z,8.00
2019-03-11T21:46:03.473Z,7.87
2019-03-11T21:48:35.527Z,7.77
2019-03-11T21:51:07.538Z,7.92
2019-03-11T21:53:39.078Z,7.86
2019-03-11T21:56:10.408Z,7.77
2019-03-11T21:58:41.634Z,7.63
2019-03-11T22:01:13.941Z,7.68
2019-03-11T22:03:45.489Z,7.68
2019-03-11T22:06:16.590Z,7.72
2019-03-11T22:08:48.207Z,7.73
2019-03-11T22:11:19.896Z,7.74
2019-03-11T22:13:51.623Z,7.66
2019-03-11T22:16:23.109Z,7.73
2019-03-11T22:18:54.480Z,7.72
2019-03-11T22:21:25.950Z,7.91
2019-03-11T22:23:57.418Z,7.83
2019-03-11T22:26:28.898Z,7.78
2019-03-11T22:28:59.876Z,7.83
2019-03-11T22:31:31.133Z,7.66
2019-03-11T22:34:02.358Z,7.17
2019-03-11T22:36:33.371Z,7.30
2019-03-11T22:39:05.376Z,7.52
2019-03-11T22:41:37.801Z,7.66
2019-03-11T22:44:09.024Z,7.70
2019-03-11T22:46:40.914Z,7.72
2019-03-11T22:49:12.410Z,7.69
2019-03-11T22:51:44.013Z,7.47
2019-03-11T22:54:15.522Z,7.44
2019-03-11T22:56:46.789Z,7.13
2019-03-11T22:59:17.878Z,7.25
2019-03-11T23:01:53.910Z,7.45
2019-03-11T23:04:25.690Z,7.25
2019-03-11T23:06:56.799Z,7.19
2019-03-11T23:09:28.370Z,7.06
2019-03-11T23:11:59.741Z,7.26
2019-03-11T23:14:31.204Z,7.05
2019-03-11T23:17:02.491Z,7.11
2019-03-11T23:19:33.861Z,7.21
2019-03-11T23:22:04.836Z,7.25
2019-03-11T23:24:36.364Z,7.28
2019-03-11T23:27:07.658Z,7.30
2019-03-11T23:29:39.251Z,7.31
2019-03-11T23:32:11.055Z,7.38
2019-03-11T23:34:43.522Z,7.40
2019-03-11T23:37:14.564Z,7.23
2019-03-11T23:39:45.874Z,7.44
2019-03-11T23:42:17.384Z,7.39
2019-03-11T23:44:48.377Z,7.45
2019-03-11T23:47:19.324Z,7.55
2019-03-11T23:49:50.362Z,7.39
2019-03-11T23:52:21.795Z,7.48
2019-03-11T23:54:52.776Z,7.57
2019-03-11T23:57:24.403Z,7.55
2019-03-11T23:59:55.769Z,7.65
